sensor_id;sensor_type;location;lat;lon;timestamp;temperature;humidity
36214;DHT22;37652;50.400;30.628;2022-10-16T00:01:18;6.50;99.90
36214;DHT22;37652;50.400;30.628;2022-10-16T00:03:19;6.50;99.90
36214;DHT22;37652;50.400;30.628;2022-10-16T00:05:19;6.50;99.90
36214;DHT22;37652;50.400;30.628;2022-10-16T00:07:20;6.30;99.90
36214;DHT22;37652;50.400;30.628;2022-10-16T00:09:20;5.80;99.90
36214;DHT22;37652;50.400;30.628;2022-10-16T00:11:32;6.50;99.90
36214;DHT22;37652;50.400;30.628;2022-10-16T00:13:35;6.40;99.90
36214;DHT22;37652;50.400;30.628;2022-10-16T00:15:37;6.10;99.90
36214;DHT22;37652;50.400;30.628;2022-10-16T00:17:37;6.30;99.90
36214;DHT22;37652;50.400;30.628;2022-10-16T00:19:38;6.20;99.90
36214;DHT22;37652;50.400;30.628;2022-10-16T00:21:38;6.30;99.90
36214;DHT22;37652;50.400;30.628;2022-10-16T00:23:39;6.40;99.90
36214;DHT22;37652;50.400;30.628;2022-10-16T00:25:40;6.10;99.90
36214;DHT22;37652;50.400;30.628;2022-10-16T00:27:41;6.30;99.90
36214;DHT22;37652;50.400;30.628;2022-10-16T00:29:41;6.30;99.90
36214;DHT22;37652;50.400;30.628;2022-10-16T00:31:42;6.20;99.90
36214;DHT22;37652;50.400;30.628;2022-10-16T00:33:43;6.20;99.90
36214;DHT22;37652;50.400;30.628;2022-10-16T00:35:43;6.20;99.90
36214;DHT22;37652;50.400;30.628;2022-10-16T00:37:44;6.00;99.90
36214;DHT22;37652;50.400;30.628;2022-10-16T00:39:44;6.00;99.90
36214;DHT22;37652;50.400;30.628;2022-10-16T00:41:45;6.20;99.90
36214;DHT22;37652;50.400;30.628;2022-10-16T00:46:42;5.90;99.90
36214;DHT22;37652;50.400;30.628;2022-10-16T00:48:50;5.90;99.90
36214;DHT22;37652;50.400;30.628;2022-10-16T00:50:52;6.40;99.90
36214;DHT22;37652;50.400;30.628;2022-10-16T00:52:54;6.10;99.90
36214;DHT22;37652;50.400;30.628;2022-10-16T00:54:56;6.10;99.90
36214;DHT22;37652;50.400;30.628;2022-10-16T00:57:00;6.00;99.90
36214;DHT22;37652;50.400;30.628;2022-10-16T00:59:10;6.00;99.90
36214;DHT22;37652;50.400;30.628;2022-10-16T01:01:12;6.00;99.90
36214;DHT22;37652;50.400;30.628;2022-10-16T01:03:42;6.30;99.90
36214;DHT22;37652;50.400;30.628;2022-10-16T01:05:52;6.00;99.90
36214;DHT22;37652;50.400;30.628;2022-10-16T01:10:28;5.90;99.90
36214;DHT22;37652;50.400;30.628;2022-10-16T01:15:10;6.40;99.90
36214;DHT22;37652;50.400;30.628;2022-10-16T01:21:58;6.00;99.90
36214;DHT22;37652;50.400;30.628;2022-10-16T01:24:22;6.00;99.90
36214;DHT22;37652;50.400;30.628;2022-10-16T01:30:54;5.90;99.90
36214;DHT22;37652;50.400;30.628;2022-10-16T01:35:34;6.00;99.90
36214;DHT22;37652;50.400;30.628;2022-10-16T01:37:40;5.80;99.90
36214;DHT22;37652;50.400;30.628;2022-10-16T01:39:45;6.10;99.90
36214;DHT22;37652;50.400;30.628;2022-10-16T01:41:53;6.00;99.90
36214;DHT22;37652;50.400;30.628;2022-10-16T01:46:06;6.10;99.90
36214;DHT22;37652;50.400;30.628;2022-10-16T01:48:10;6.00;99.90
36214;DHT22;37652;50.400;30.628;2022-10-16T01:50:14;5.80;99.90
36214;DHT22;37652;50.400;30.628;2022-10-16T01:52:18;6.00;99.90
36214;DHT22;37652;50.400;30.628;2022-10-16T01:54:23;5.90;99.90
36214;DHT22;37652;50.400;30.628;2022-10-16T01:56:25;6.20;99.90
36214;DHT22;37652;50.400;30.628;2022-10-16T01:58:28;6.40;99.90
36214;DHT22;37652;50.400;30.628;2022-10-16T02:00:37;6.60;99.90
36214;DHT22;37652;50.400;30.628;2022-10-16T02:02:40;6.10;99.90
36214;DHT22;37652;50.400;30.628;2022-10-16T02:05:29;6.00;99.90
36214;DHT22;37652;50.400;30.628;2022-10-16T02:07:31;5.90;99.90
36214;DHT22;37652;50.400;30.628;2022-10-16T02:09:33;5.90;99.90
36214;DHT22;37652;50.400;30.628;2022-10-16T02:11:34;6.10;99.90
36214;DHT22;37652;50.400;30.628;2022-10-16T02:13:54;5.70;99.90
36214;DHT22;37652;50.400;30.628;2022-10-16T02:15:55;6.40;99.90
36214;DHT22;37652;50.400;30.628;2022-10-16T02:17:56;6.20;99.90
36214;DHT22;37652;50.400;30.628;2022-10-16T02:19:57;5.90;99.90
36214;DHT22;37652;50.400;30.628;2022-10-16T02:22:04;6.10;99.90
36214;DHT22;37652;50.400;30.628;2022-10-16T02:26:12;6.00;99.90
36214;DHT22;37652;50.400;30.628;2022-10-16T02:28:18;5.90;99.90
36214;DHT22;37652;50.400;30.628;2022-10-16T02:30:27;5.90;99.90
36214;DHT22;37652;50.400;30.628;2022-10-16T02:32:31;6.10;99.90
36214;DHT22;37652;50.400;30.628;2022-10-16T02:34:33;6.00;99.90
36214;DHT22;37652;50.400;30.628;2022-10-16T02:36:36;5.80;99.90
36214;DHT22;37652;50.400;30.628;2022-10-16T02:38:38;5.80;99.90
36214;DHT22;37652;50.400;30.628;2022-10-16T02:40:40;6.10;99.90
36214;DHT22;37652;50.400;30.628;2022-10-16T02:42:41;5.70;99.90
36214;DHT22;37652;50.400;30.628;2022-10-16T02:44:42;5.70;99.90
36214;DHT22;37652;50.400;30.628;2022-10-16T02:46:42;5.80;99.90
36214;DHT22;37652;50.400;30.628;2022-10-16T02:50:44;5.80;99.90
36214;DHT22;37652;50.400;30.628;2022-10-16T02:54:45;5.50;99.90
36214;DHT22;37652;50.400;30.628;2022-10-16T02:56:46;5.70;99.90
36214;DHT22;37652;50.400;30.628;2022-10-16T02:58:47;5.80;99.90
36214;DHT22;37652;50.400;30.628;2022-10-16T03:00:48;5.20;99.90
36214;DHT22;37652;50.400;30.628;2022-10-16T03:02:48;5.50;99.90
36214;DHT22;37652;50.400;30.628;2022-10-16T03:04:49;6.00;99.90
36214;DHT22;37652;50.400;30.628;2022-10-16T03:06:49;5.50;99.90
36214;DHT22;37652;50.400;30.628;2022-10-16T03:08:50;6.00;99.90
36214;DHT22;37652;50.400;30.628;2022-10-16T03:10:51;5.40;99.90
36214;DHT22;37652;50.400;30.628;2022-10-16T03:12:52;5.30;99.90
36214;DHT22;37652;50.400;30.628;2022-10-16T03:14:53;5.30;99.90
36214;DHT22;37652;50.400;30.628;2022-10-16T03:16:53;5.70;99.90
36214;DHT22;37652;50.400;30.628;2022-10-16T03:18:54;5.40;99.90
36214;DHT22;37652;50.400;30.628;2022-10-16T03:20:55;4.70;99.90
36214;DHT22;37652;50.400;30.628;2022-10-16T03:22:55;5.20;99.90
36214;DHT22;37652;50.400;30.628;2022-10-16T03:24:56;5.00;99.90
36214;DHT22;37652;50.400;30.628;2022-10-16T03:26:57;5.30;99.90
36214;DHT22;37652;50.400;30.628;2022-10-16T03:28:58;5.40;99.90
36214;DHT22;37652;50.400;30.628;2022-10-16T03:30:58;4.80;99.90
36214;DHT22;37652;50.400;30.628;2022-10-16T03:32:59;4.70;99.90
36214;DHT22;37652;50.400;30.628;2022-10-16T03:34:59;5.90;99.90
36214;DHT22;37652;50.400;30.628;2022-10-16T03:37:00;5.20;99.90
36214;DHT22;37652;50.400;30.628;2022-10-16T03:39:01;4.60;99.90
36214;DHT22;37652;50.400;30.628;2022-10-16T03:41:01;5.10;99.90
36214;DHT22;37652;50.400;30.628;2022-10-16T03:45:04;4.80;99.90
36214;DHT22;37652;50.400;30.628;2022-10-16T03:47:05;4.80;99.90
36214;DHT22;37652;50.400;30.628;2022-10-16T03:49:05;4.20;99.90
36214;DHT22;37652;50.400;30.628;2022-10-16T03:53:07;4.30;99.90
36214;DHT22;37652;50.400;30.628;2022-10-16T03:55:08;4.80;99.90
36214;DHT22;37652;50.400;30.628;2022-10-16T03:57:09;4.10;99.90
36214;DHT22;37652;50.400;30.628;2022-10-16T03:59:09;4.10;99.90
36214;DHT22;37652;50.400;30.628;2022-10-16T04:03:11;4.60;99.90
36214;DHT22;37652;50.400;30.628;2022-10-16T04:05:12;4.30;99.90
36214;DHT22;37652;50.400;30.628;2022-10-16T04:09:14;4.20;99.90
36214;DHT22;37652;50.400;30.628;2022-10-16T04:11:14;4.60;99.90
36214;DHT22;37652;50.400;30.628;2022-10-16T04:13:16;4.30;99.90
36214;DHT22;37652;50.400;30.628;2022-10-16T04:15:16;4.30;99.90
36214;DHT22;37652;50.400;30.628;2022-10-16T04:17:17;4.40;99.90
36214;DHT22;37652;50.400;30.628;2022-10-16T04:19:18;4.80;99.90
36214;DHT22;37652;50.400;30.628;2022-10-16T04:21:19;4.30;99.90
36214;DHT22;37652;50.400;30.628;2022-10-16T04:23:20;4.40;99.90
36214;DHT22;37652;50.400;30.628;2022-10-16T04:25:20;4.90;99.90
36214;DHT22;37652;50.400;30.628;2022-10-16T04:27:21;4.30;99.90
36214;DHT22;37652;50.400;30.628;2022-10-16T04:29:21;4.70;99.90
36214;DHT22;37652;50.400;30.628;2022-10-16T04:31:22;4.80;99.90
36214;DHT22;37652;50.400;30.628;2022-10-16T04:33:23;5.00;99.90
36214;DHT22;37652;50.400;30.628;2022-10-16T04:37:25;4.80;99.90
36214;DHT22;37652;50.400;30.628;2022-10-16T04:39:26;5.00;99.90
36214;DHT22;37652;50.400;30.628;2022-10-16T04:41:26;5.00;99.90
36214;DHT22;37652;50.400;30.628;2022-10-16T04:43:27;5.00;99.90
36214;DHT22;37652;50.400;30.628;2022-10-16T04:45:27;4.90;99.90
36214;DHT22;37652;50.400;30.628;2022-10-16T04:47:28;5.20;99.90
36214;DHT22;37652;50.400;30.628;2022-10-16T04:51:30;4.90;99.90
36214;DHT22;37652;50.400;30.628;2022-10-16T04:53:31;5.20;99.90
36214;DHT22;37652;50.400;30.628;2022-10-16T04:55:32;4.90;99.90
36214;DHT22;37652;50.400;30.628;2022-10-16T04:57:32;5.30;99.90
36214;DHT22;37652;50.400;30.628;2022-10-16T05:01:35;5.30;99.90
36214;DHT22;37652;50.400;30.628;2022-10-16T05:03:35;5.20;99.90
36214;DHT22;37652;50.400;30.628;2022-10-16T05:05:36;5.40;99.90
36214;DHT22;37652;50.400;30.628;2022-10-16T05:07:37;5.80;99.90
36214;DHT22;37652;50.400;30.628;2022-10-16T05:09:38;5.40;99.90
36214;DHT22;37652;50.400;30.628;2022-10-16T05:11:38;5.50;99.90
36214;DHT22;37652;50.400;30.628;2022-10-16T05:17:41;5.70;99.90
36214;DHT22;37652;50.400;30.628;2022-10-16T05:21:43;5.40;99.90
36214;DHT22;37652;50.400;30.628;2022-10-16T05:23:44;5.70;99.90
36214;DHT22;37652;50.400;30.628;2022-10-16T05:25:55;5.70;99.90
36214;DHT22;37652;50.400;30.628;2022-10-16T05:29:59;5.60;99.90
36214;DHT22;37652;50.400;30.628;2022-10-16T05:32:00;6.00;99.90
36214;DHT22;37652;50.400;30.628;2022-10-16T05:36:04;5.80;99.90
36214;DHT22;37652;50.400;30.628;2022-10-16T05:40:07;6.00;99.90
36214;DHT22;37652;50.400;30.628;2022-10-16T05:42:07;5.90;99.90
36214;DHT22;37652;50.400;30.628;2022-10-16T05:48:10;6.20;99.90
36214;DHT22;37652;50.400;30.628;2022-10-16T05:52:12;5.80;99.90
36214;DHT22;37652;50.400;30.628;2022-10-16T05:56:14;6.30;99.90
36214;DHT22;37652;50.400;30.628;2022-10-16T05:58:15;6.40;99.90
36214;DHT22;37652;50.400;30.628;2022-10-16T06:00:15;6.40;99.90
36214;DHT22;37652;50.400;30.628;2022-10-16T06:02:16;6.40;99.90
36214;DHT22;37652;50.400;30.628;2022-10-16T06:04:17;6.60;99.90
36214;DHT22;37652;50.400;30.628;2022-10-16T06:06:20;6.70;99.90
36214;DHT22;37652;50.400;30.628;2022-10-16T06:08:22;6.80;99.90
36214;DHT22;37652;50.400;30.628;2022-10-16T06:14:25;6.80;99.90
36214;DHT22;37652;50.400;30.628;2022-10-16T06:18:28;6.90;99.90
36214;DHT22;37652;50.400;30.628;2022-10-16T06:20:29;7.20;99.90
36214;DHT22;37652;50.400;30.628;2022-10-16T06:22:30;7.30;99.90
36214;DHT22;37652;50.400;30.628;2022-10-16T06:28:33;7.00;99.90
36214;DHT22;37652;50.400;30.628;2022-10-16T06:30:34;7.30;99.90
36214;DHT22;37652;50.400;30.628;2022-10-16T06:32:34;7.50;99.90
36214;DHT22;37652;50.400;30.628;2022-10-16T06:34:35;7.40;99.90
36214;DHT22;37652;50.400;30.628;2022-10-16T06:36:36;7.70;99.90
36214;DHT22;37652;50.400;30.628;2022-10-16T06:38:37;7.60;99.90
36214;DHT22;37652;50.400;30.628;2022-10-16T06:42:39;7.90;99.90
36214;DHT22;37652;50.400;30.628;2022-10-16T06:44:39;7.70;99.90
36214;DHT22;37652;50.400;30.628;2022-10-16T06:46:40;8.20;99.90
36214;DHT22;37652;50.400;30.628;2022-10-16T06:48:41;8.20;99.90
36214;DHT22;37652;50.400;30.628;2022-10-16T06:56:45;8.30;99.90
36214;DHT22;37652;50.400;30.628;2022-10-16T07:00:47;8.70;99.90
36214;DHT22;37652;50.400;30.628;2022-10-16T07:02:49;8.70;99.90
36214;DHT22;37652;50.400;30.628;2022-10-16T07:08:52;8.70;99.90
36214;DHT22;37652;50.400;30.628;2022-10-16T07:11:04;8.40;99.90
36214;DHT22;37652;50.400;30.628;2022-10-16T07:13:05;8.90;99.90
36214;DHT22;37652;50.400;30.628;2022-10-16T07:15:08;9.40;99.90
36214;DHT22;37652;50.400;30.628;2022-10-16T07:17:08;9.10;99.90
36214;DHT22;37652;50.400;30.628;2022-10-16T07:19:09;9.70;99.90
36214;DHT22;37652;50.400;30.628;2022-10-16T07:21:17;9.70;99.90
36214;DHT22;37652;50.400;30.628;2022-10-16T07:23:19;10.00;99.90
36214;DHT22;37652;50.400;30.628;2022-10-16T07:31:26;10.30;99.90
36214;DHT22;37652;50.400;30.628;2022-10-16T07:35:28;10.80;99.90
36214;DHT22;37652;50.400;30.628;2022-10-16T07:37:28;11.30;99.90
36214;DHT22;37652;50.400;30.628;2022-10-16T07:39:29;11.20;99.90
36214;DHT22;37652;50.400;30.628;2022-10-16T07:41:30;10.90;99.90
36214;DHT22;37652;50.400;30.628;2022-10-16T07:43:33;10.70;99.90
36214;DHT22;37652;50.400;30.628;2022-10-16T07:53:39;12.00;99.90
36214;DHT22;37652;50.400;30.628;2022-10-16T07:55:40;10.80;99.90
36214;DHT22;37652;50.400;30.628;2022-10-16T08:01:43;12.00;99.90
36214;DHT22;37652;50.400;30.628;2022-10-16T08:03:49;12.20;99.90
36214;DHT22;37652;50.400;30.628;2022-10-16T08:11:53;14.00;99.90
36214;DHT22;37652;50.400;30.628;2022-10-16T08:13:54;14.20;99.90
36214;DHT22;37652;50.400;30.628;2022-10-16T08:15:55;15.90;98.50
36214;DHT22;37652;50.400;30.628;2022-10-16T08:18:00;16.40;95.90
36214;DHT22;37652;50.400;30.628;2022-10-16T08:20:01;17.00;93.90
36214;DHT22;37652;50.400;30.628;2022-10-16T08:22:02;16.40;93.00
36214;DHT22;37652;50.400;30.628;2022-10-16T08:24:03;17.90;92.40
36214;DHT22;37652;50.400;30.628;2022-10-16T08:26:06;18.50;89.80
36214;DHT22;37652;50.400;30.628;2022-10-16T08:28:09;18.50;87.40
36214;DHT22;37652;50.400;30.628;2022-10-16T08:30:13;18.10;86.40
36214;DHT22;37652;50.400;30.628;2022-10-16T08:32:13;18.70;85.40
36214;DHT22;37652;50.400;30.628;2022-10-16T08:34:14;19.00;86.30
36214;DHT22;37652;50.400;30.628;2022-10-16T08:36:16;20.10;80.60
36214;DHT22;37652;50.400;30.628;2022-10-16T08:38:17;21.20;76.40
36214;DHT22;37652;50.400;30.628;2022-10-16T08:40:25;21.20;76.60
36214;DHT22;37652;50.400;30.628;2022-10-16T08:45:02;21.40;71.40
36214;DHT22;37652;50.400;30.628;2022-10-16T08:49:31;21.50;69.10
36214;DHT22;37652;50.400;30.628;2022-10-16T08:51:36;21.50;68.80
36214;DHT22;37652;50.400;30.628;2022-10-16T08:53:44;22.00;67.90
36214;DHT22;37652;50.400;30.628;2022-10-16T08:55:50;21.90;66.80
36214;DHT22;37652;50.400;30.628;2022-10-16T08:57:51;23.00;66.30
36214;DHT22;37652;50.400;30.628;2022-10-16T08:59:53;23.40;65.10
36214;DHT22;37652;50.400;30.628;2022-10-16T09:02:00;23.90;62.90
36214;DHT22;37652;50.400;30.628;2022-10-16T09:04:21;24.40;63.20
36214;DHT22;37652;50.400;30.628;2022-10-16T09:06:27;23.40;62.30
36214;DHT22;37652;50.400;30.628;2022-10-16T09:08:45;23.10;61.90
36214;DHT22;37652;50.400;30.628;2022-10-16T09:15:27;24.70;60.70
36214;DHT22;37652;50.400;30.628;2022-10-16T09:19:46;21.60;62.40
36214;DHT22;37652;50.400;30.628;2022-10-16T09:21:50;22.80;59.90
36214;DHT22;37652;50.400;30.628;2022-10-16T09:23:51;23.50;59.00
36214;DHT22;37652;50.400;30.628;2022-10-16T09:25:54;24.00;56.70
36214;DHT22;37652;50.400;30.628;2022-10-16T09:27:56;22.40;56.50
36214;DHT22;37652;50.400;30.628;2022-10-16T09:32:13;21.10;58.90
36214;DHT22;37652;50.400;30.628;2022-10-16T09:36:28;24.00;56.60
36214;DHT22;37652;50.400;30.628;2022-10-16T09:38:31;24.60;56.90
36214;DHT22;37652;50.400;30.628;2022-10-16T09:40:37;23.70;55.80
36214;DHT22;37652;50.400;30.628;2022-10-16T09:44:40;22.80;56.20
36214;DHT22;37652;50.400;30.628;2022-10-16T09:48:49;22.10;58.90
36214;DHT22;37652;50.400;30.628;2022-10-16T09:51:01;23.30;57.10
36214;DHT22;37652;50.400;30.628;2022-10-16T09:53:13;21.50;56.60
36214;DHT22;37652;50.400;30.628;2022-10-16T09:55:17;19.90;58.70
36214;DHT22;37652;50.400;30.628;2022-10-16T09:59:23;22.10;58.10
36214;DHT22;37652;50.400;30.628;2022-10-16T10:01:38;21.90;57.10
36214;DHT22;37652;50.400;30.628;2022-10-16T10:03:41;22.30;59.80
36214;DHT22;37652;50.400;30.628;2022-10-16T10:05:48;20.80;58.20
36214;DHT22;37652;50.400;30.628;2022-10-16T10:07:59;21.60;61.10
36214;DHT22;37652;50.400;30.628;2022-10-16T10:10:03;21.10;59.10
36214;DHT22;37652;50.400;30.628;2022-10-16T10:12:06;21.40;58.00
36214;DHT22;37652;50.400;30.628;2022-10-16T10:14:25;21.00;59.10
36214;DHT22;37652;50.400;30.628;2022-10-16T10:20:36;23.10;64.20
36214;DHT22;37652;50.400;30.628;2022-10-16T10:22:43;22.00;58.20
36214;DHT22;37652;50.400;30.628;2022-10-16T10:25:12;22.10;57.80
36214;DHT22;37652;50.400;30.628;2022-10-16T10:27:17;22.50;57.30
36214;DHT22;37652;50.400;30.628;2022-10-16T10:29:41;22.20;57.20
36214;DHT22;37652;50.400;30.628;2022-10-16T10:36:35;21.30;59.00
36214;DHT22;37652;50.400;30.628;2022-10-16T10:38:53;19.40;59.90
36214;DHT22;37652;50.400;30.628;2022-10-16T11:06:20;21.60;57.60
36214;DHT22;37652;50.400;30.628;2022-10-16T11:08:34;21.60;62.90
36214;DHT22;37652;50.400;30.628;2022-10-16T11:13:04;22.20;57.30
36214;DHT22;37652;50.400;30.628;2022-10-16T11:15:18;22.70;63.30
36214;DHT22;37652;50.400;30.628;2022-10-16T11:17:26;21.90;57.60
36214;DHT22;37652;50.400;30.628;2022-10-16T11:19:42;21.70;62.80
36214;DHT22;37652;50.400;30.628;2022-10-16T11:26:23;22.20;57.70
36214;DHT22;37652;50.400;30.628;2022-10-16T11:28:37;21.00;58.30
36214;DHT22;37652;50.400;30.628;2022-10-16T11:33:12;21.60;57.60
36214;DHT22;37652;50.400;30.628;2022-10-16T11:35:36;21.80;67.30
36214;DHT22;37652;50.400;30.628;2022-10-16T11:37:42;21.80;57.50
36214;DHT22;37652;50.400;30.628;2022-10-16T11:46:04;21.20;58.70
36214;DHT22;37652;50.400;30.628;2022-10-16T11:48:20;21.80;58.90
36214;DHT22;37652;50.400;30.628;2022-10-16T11:53:26;22.00;58.50
36214;DHT22;37652;50.400;30.628;2022-10-16T11:55:15;22.00;58.60
36214;DHT22;37652;50.400;30.628;2022-10-16T11:57:24;22.60;58.60
36214;DHT22;37652;50.400;30.628;2022-10-16T11:59:48;22.50;58.50
36214;DHT22;37652;50.400;30.628;2022-10-16T12:02:11;22.20;64.50
36214;DHT22;37652;50.400;30.628;2022-10-16T12:10:48;20.80;58.90
36214;DHT22;37652;50.400;30.628;2022-10-16T12:12:49;20.60;58.70
36214;DHT22;37652;50.400;30.628;2022-10-16T12:15:00;20.60;59.40
36214;DHT22;37652;50.400;30.628;2022-10-16T12:19:24;21.50;58.80
36214;DHT22;37652;50.400;30.628;2022-10-16T12:21:30;22.10;58.40
36214;DHT22;37652;50.400;30.628;2022-10-16T12:23:52;21.60;58.20
36214;DHT22;37652;50.400;30.628;2022-10-16T12:25:58;21.40;64.00
36214;DHT22;37652;50.400;30.628;2022-10-16T12:28:20;19.90;65.00
36214;DHT22;37652;50.400;30.628;2022-10-16T12:30:24;21.30;63.50
36214;DHT22;37652;50.400;30.628;2022-10-16T12:32:29;21.10;59.80
36214;DHT22;37652;50.400;30.628;2022-10-16T12:34:42;21.30;65.60
36214;DHT22;37652;50.400;30.628;2022-10-16T12:36:43;21.40;65.40
36214;DHT22;37652;50.400;30.628;2022-10-16T12:41:00;20.30;65.40
36214;DHT22;37652;50.400;30.628;2022-10-16T12:43:56;20.50;64.80
36214;DHT22;37652;50.400;30.628;2022-10-16T12:45:33;20.90;60.20
36214;DHT22;37652;50.400;30.628;2022-10-16T12:49:38;20.60;60.20
36214;DHT22;37652;50.400;30.628;2022-10-16T12:51:41;21.10;61.10
36214;DHT22;37652;50.400;30.628;2022-10-16T12:55:51;21.20;59.30
36214;DHT22;37652;50.400;30.628;2022-10-16T13:05:12;20.10;60.90
36214;DHT22;37652;50.400;30.628;2022-10-16T13:10:21;19.80;65.70
36214;DHT22;37652;50.400;30.628;2022-10-16T13:14:56;20.20;64.80
36214;DHT22;37652;50.400;30.628;2022-10-16T13:19:16;20.50;62.70
36214;DHT22;37652;50.400;30.628;2022-10-16T13:22:00;18.90;66.50
36214;DHT22;37652;50.400;30.628;2022-10-16T13:26:53;20.20;66.40
36214;DHT22;37652;50.400;30.628;2022-10-16T13:28:59;20.10;66.70
36214;DHT22;37652;50.400;30.628;2022-10-16T13:31:01;20.20;58.80
36214;DHT22;37652;50.400;30.628;2022-10-16T13:35:03;20.30;58.40
36214;DHT22;37652;50.400;30.628;2022-10-16T13:37:20;19.90;59.30
36214;DHT22;37652;50.400;30.628;2022-10-16T13:39:27;20.90;58.60
36214;DHT22;37652;50.400;30.628;2022-10-16T13:41:28;20.80;60.60
36214;DHT22;37652;50.400;30.628;2022-10-16T13:48:06;19.10;59.60
36214;DHT22;37652;50.400;30.628;2022-10-16T13:50:13;19.20;59.90
36214;DHT22;37652;50.400;30.628;2022-10-16T13:52:18;19.40;59.60
36214;DHT22;37652;50.400;30.628;2022-10-16T13:56:21;19.10;60.30
36214;DHT22;37652;50.400;30.628;2022-10-16T14:00:25;18.90;61.20
36214;DHT22;37652;50.400;30.628;2022-10-16T14:02:31;18.70;71.60
36214;DHT22;37652;50.400;30.628;2022-10-16T14:04:38;18.60;61.00
36214;DHT22;37652;50.400;30.628;2022-10-16T14:06:48;18.70;64.60
36214;DHT22;37652;50.400;30.628;2022-10-16T14:08:59;18.10;61.70
36214;DHT22;37652;50.400;30.628;2022-10-16T14:11:01;17.60;62.50
36214;DHT22;37652;50.400;30.628;2022-10-16T14:13:04;17.80;78.10
36214;DHT22;37652;50.400;30.628;2022-10-16T14:15:15;17.70;72.70
36214;DHT22;37652;50.400;30.628;2022-10-16T14:17:26;17.50;77.20
36214;DHT22;37652;50.400;30.628;2022-10-16T14:19:29;17.20;72.10
36214;DHT22;37652;50.400;30.628;2022-10-16T14:21:30;17.90;72.30
36214;DHT22;37652;50.400;30.628;2022-10-16T14:23:37;17.70;72.30
36214;DHT22;37652;50.400;30.628;2022-10-16T14:25:38;17.30;72.70
36214;DHT22;37652;50.400;30.628;2022-10-16T14:27:39;16.50;72.50
36214;DHT22;37652;50.400;30.628;2022-10-16T14:33:42;16.10;74.90
36214;DHT22;37652;50.400;30.628;2022-10-16T14:35:44;16.10;65.60
36214;DHT22;37652;50.400;30.628;2022-10-16T14:37:45;15.70;75.00
36214;DHT22;37652;50.400;30.628;2022-10-16T14:39:50;16.50;74.90
36214;DHT22;37652;50.400;30.628;2022-10-16T14:41:51;14.90;67.80
36214;DHT22;37652;50.400;30.628;2022-10-16T14:44:06;15.80;76.90
36214;DHT22;37652;50.400;30.628;2022-10-16T14:46:21;15.40;77.90
36214;DHT22;37652;50.400;30.628;2022-10-16T14:52:28;13.50;80.00
36214;DHT22;37652;50.400;30.628;2022-10-16T15:02:37;12.80;82.90
36214;DHT22;37652;50.400;30.628;2022-10-16T15:04:37;12.60;82.70
36214;DHT22;37652;50.400;30.628;2022-10-16T15:06:38;13.00;83.90
36214;DHT22;37652;50.400;30.628;2022-10-16T15:08:39;13.70;72.90
36214;DHT22;37652;50.400;30.628;2022-10-16T15:10:41;12.40;72.30
36214;DHT22;37652;50.400;30.628;2022-10-16T15:14:43;12.20;72.30
36214;DHT22;37652;50.400;30.628;2022-10-16T15:16:44;11.80;83.30
36214;DHT22;37652;50.400;30.628;2022-10-16T15:20:50;11.90;72.80
36214;DHT22;37652;50.400;30.628;2022-10-16T15:24:52;12.50;81.50
36214;DHT22;37652;50.400;30.628;2022-10-16T15:26:53;11.00;83.20
36214;DHT22;37652;50.400;30.628;2022-10-16T15:28:54;11.40;75.70
36214;DHT22;37652;50.400;30.628;2022-10-16T15:30:56;11.80;72.90
36214;DHT22;37652;50.400;30.628;2022-10-16T15:32:57;11.90;83.40
36214;DHT22;37652;50.400;30.628;2022-10-16T15:34:58;11.30;83.50
36214;DHT22;37652;50.400;30.628;2022-10-16T15:37:03;11.60;73.20
36214;DHT22;37652;50.400;30.628;2022-10-16T15:39:14;11.70;85.00
36214;DHT22;37652;50.400;30.628;2022-10-16T15:41:15;11.10;84.60
36214;DHT22;37652;50.400;30.628;2022-10-16T15:43:16;11.00;84.70
36214;DHT22;37652;50.400;30.628;2022-10-16T15:45:17;11.40;74.40
36214;DHT22;37652;50.400;30.628;2022-10-16T15:47:19;10.90;84.70
36214;DHT22;37652;50.400;30.628;2022-10-16T15:51:21;11.60;86.60
36214;DHT22;37652;50.400;30.628;2022-10-16T15:53:21;10.90;79.60
36214;DHT22;37652;50.400;30.628;2022-10-16T15:57:23;11.50;89.30
36214;DHT22;37652;50.400;30.628;2022-10-16T16:01:26;10.50;81.70
36214;DHT22;37652;50.400;30.628;2022-10-16T16:05:29;10.80;89.70
36214;DHT22;37652;50.400;30.628;2022-10-16T16:07:33;10.60;89.70
36214;DHT22;37652;50.400;30.628;2022-10-16T16:09:34;11.10;86.30
36214;DHT22;37652;50.400;30.628;2022-10-16T16:13:39;9.90;91.20
36214;DHT22;37652;50.400;30.628;2022-10-16T16:15:40;10.50;82.80
36214;DHT22;37652;50.400;30.628;2022-10-16T16:19:42;9.90;90.30
36214;DHT22;37652;50.400;30.628;2022-10-16T16:29:47;9.50;95.20
36214;DHT22;37652;50.400;30.628;2022-10-16T16:31:48;9.60;95.50
36214;DHT22;37652;50.400;30.628;2022-10-16T16:35:56;9.60;92.00
36214;DHT22;37652;50.400;30.628;2022-10-16T16:41:59;11.40;97.40
36214;DHT22;37652;50.400;30.628;2022-10-16T16:44:05;9.60;93.90
36214;DHT22;37652;50.400;30.628;2022-10-16T16:52:11;9.30;99.90
36214;DHT22;37652;50.400;30.628;2022-10-16T16:54:12;9.50;99.90
36214;DHT22;37652;50.400;30.628;2022-10-16T17:02:17;9.80;99.90
36214;DHT22;37652;50.400;30.628;2022-10-16T17:04:18;9.70;99.90
36214;DHT22;37652;50.400;30.628;2022-10-16T17:06:21;11.50;97.20
36214;DHT22;37652;50.400;30.628;2022-10-16T17:08:21;9.60;99.90
36214;DHT22;37652;50.400;30.628;2022-10-16T17:12:23;10.00;99.90
36214;DHT22;37652;50.400;30.628;2022-10-16T17:14:24;9.50;99.90
36214;DHT22;37652;50.400;30.628;2022-10-16T17:16:30;9.40;98.00
36214;DHT22;37652;50.400;30.628;2022-10-16T17:20:35;9.50;98.00
36214;DHT22;37652;50.400;30.628;2022-10-16T17:22:36;8.70;99.90
36214;DHT22;37652;50.400;30.628;2022-10-16T17:26:38;9.70;99.90
36214;DHT22;37652;50.400;30.628;2022-10-16T17:28:41;9.10;99.90
36214;DHT22;37652;50.400;30.628;2022-10-16T17:30:43;9.60;99.90
36214;DHT22;37652;50.400;30.628;2022-10-16T17:32:43;9.20;99.90
36214;DHT22;37652;50.400;30.628;2022-10-16T17:34:44;9.60;99.90
36214;DHT22;37652;50.400;30.628;2022-10-16T17:46:52;8.90;99.90
36214;DHT22;37652;50.400;30.628;2022-10-16T17:48:53;8.80;99.90
36214;DHT22;37652;50.400;30.628;2022-10-16T17:50:54;8.80;99.90
36214;DHT22;37652;50.400;30.628;2022-10-16T17:56:57;9.10;99.90
36214;DHT22;37652;50.400;30.628;2022-10-16T17:58:59;8.70;99.90
36214;DHT22;37652;50.400;30.628;2022-10-16T18:01:01;8.60;99.90
36214;DHT22;37652;50.400;30.628;2022-10-16T18:03:02;8.60;99.90
36214;DHT22;37652;50.400;30.628;2022-10-16T18:05:03;8.50;99.90
36214;DHT22;37652;50.400;30.628;2022-10-16T18:07:05;8.50;99.90
36214;DHT22;37652;50.400;30.628;2022-10-16T18:09:07;8.80;99.90
36214;DHT22;37652;50.400;30.628;2022-10-16T18:11:09;8.40;99.90